KAUS/AUS METAR and TAF weather

Enter ICAO airport designator
Station Type Date Time Source
KAUS METAR 2019/12/13 00:53 UTC NOAA

KAUS 130053Z 00000KT 10SM CLR 09/06 A3010 RMK AO2 SLP199 T00890061


Station Type Date Time Source
KAUS Decoded METAR 2019/12/13 00:53 UTC NOAA

AUSTIN-BERGSTROM INTERNATIONAL AIRPORT, TX, United States (KAUS) 30-11N 097-41W 172M
Dec 12, 2019 - 07:53 PM EST / 2019.12.13 0053 UTC
Wind: Calm:0
Visibility: 10 mile(s):0
Sky conditions: clear
Temperature: 48.0 F (8.9 C)
Dew Point: 43.0 F (6.1 C)
Relative Humidity: 82%
Pressure (altimeter): 30.1 in. Hg (1019 hPa)
ob: KAUS 130053Z 00000KT 10SM CLR 09/06 A3010 RMK AO2 SLP199 T00890061
cycle: 1

Station Type Date Time Source
KAUS TAF 2019/12/12 18:27 UTC NOAA

TAF KAUS 121723Z 1218/1324 17007KT P6SM FEW040 SCT250
TEMPO 1218/1219 BKN029
FM122100 21011KT P6SM SCT250

Example: see airport list